Flight Track Log - Related Links

Times and Time Zones

All times are in EDT time to prevent confusion due to time zone crossing. See the ASQ5827 flight status page for this flight to view local times or setup timezone preferences in your user account.

Time Position Orientation Groundspeed Altitude Reporting Facility
EDT Latitude Longitude Course Direction KTS MPH feet Rate Location/Type
Tue 09:12:30 AM 42.0000 -87.8833 71° East 156 180 1,900  Level Chicago TRACON
Tue 09:13:30 AM 42.0167 -87.8167 71° East 206 237 3,500 2,061 Climbing Chicago TRACON
Tue 09:15:48 AM 42.0003 -87.6069 96° East 263 303 8,700 2,160 Climbing Chicago Center
Tue 09:16:50 AM 41.9900 -87.5061 98° East 272 313 10,700 1,306 Climbing Chicago Center
Tue 09:17:52 AM 41.9781 -87.3858 98° East 320 368 11,400 823 Climbing Chicago Center
Tue 09:18:54 AM 41.9644 -87.2575 98° East 347 399 12,400 1,016 Climbing Chicago Center
Tue 09:19:56 AM 41.9514 -87.1222 97° East 362 417 13,500 1,210 Climbing Chicago Center
Tue 09:20:58 AM 41.9456 -86.9564 93° East 375 432 14,900 1,306 Climbing Chicago Center
Tue 09:22:00 AM 41.9486 -86.8181 88° East 373 429 16,200 1,161 Climbing Chicago Center
Tue 09:23:02 AM 41.9500 -86.6872 89° East 374 430 17,300 1,065 Climbing Chicago Center
Tue 09:24:04 AM 41.9525 -86.5483 89° East 375 432 18,400 1,161 Climbing Chicago Center
Tue 09:25:06 AM 41.9533 -86.3769 90° East 382 440 19,700 1,104 Climbing Chicago Center
Tue 09:26:09 AM 41.9547 -86.2322 89° East 388 447 20,700 1,008 Climbing Chicago Center
Tue 09:27:11 AM 41.9303 -86.0875 103° East 395 455 21,800 1,016 Climbing Chicago Center
Tue 09:28:13 AM 41.9019 -85.9442 105° East 399 459 22,800 677 Climbing Chicago Center
Tue 09:29:15 AM 41.8728 -85.7967 105° East 406 467 23,200 871 Climbing Chicago Center
Tue 09:30:17 AM 41.8433 -85.6481 105° East 412 474 24,600 871 Climbing Chicago Center
Tue 09:31:19 AM 41.8147 -85.5014 105° East 404 465 25,000 194 Climbing Chicago Center
Tue 09:32:21 AM 41.7772 -85.3153 105° East 420 483 25,000  Level Chicago Center
Tue 09:33:23 AM 41.7444 -85.1597 106° East 428 493 25,000  Level Chicago Center
Tue 09:34:21 AM 41.7139 -85.0067 105° East 412 474 25,000  Level Cleveland Center
Tue 09:35:21 AM 41.6894 -84.8853 105° East 417 480 25,000  Level Cleveland Center
Tue 09:36:21 AM 41.6561 -84.7161 105° East 423 487 25,000  Level Cleveland Center
Tue 09:37:21 AM 41.6261 -84.5614 104° East 428 493 25,000  Level Cleveland Center
Tue 09:38:21 AM 41.6003 -84.4044 102° East 428 493 25,000  Level Cleveland Center
Tue 09:39:21 AM 41.5656 -84.2494 107° East 428 493 25,000  Level Cleveland Center
Tue 09:40:21 AM 41.5350 -84.0981 105° East 428 493 25,000  Level Cleveland Center
Tue 09:41:21 AM 41.5083 -83.9439 103° East 423 487 25,000  Level Cleveland Center
Tue 09:42:21 AM 41.4772 -83.7900 105° East 423 487 25,000 -50 Level Cleveland Center
Tue 09:43:21 AM 41.4439 -83.6386 106° East 423 487 24,900 -500 Descending Cleveland Center
Tue 09:44:21 AM 41.3783 -83.5111 124° Southeast 414 476 24,000 -750 Descending Cleveland Center
Tue 09:45:21 AM 41.3086 -83.3833 126° Southeast 419 482 23,400 -800 Descending Cleveland Center
Tue 09:46:21 AM 41.2386 -83.2589 127° Southeast 419 482 22,400 -1,050 Descending Cleveland Center
Tue 09:47:21 AM 41.1647 -83.1208 125° Southeast 419 482 21,300 -1,050 Descending Cleveland Center
Tue 09:48:21 AM 41.0942 -82.9994 128° Southeast 419 482 20,300 -1,000 Descending Cleveland Center
Tue 09:49:21 AM 41.0300 -82.8789 125° Southeast 419 482 19,300 -650 Descending Cleveland Center
Tue 09:50:21 AM 40.9636 -82.7581 126° Southeast 413 475 19,000 -150 Descending Cleveland Center
Tue 09:51:21 AM 40.8989 -82.6461 127° Southeast 400 460 19,000 -250 Level Cleveland Center
Tue 09:52:21 AM 40.8597 -82.5131 111° Southeast 388 447 18,500 -1,400 Descending Cleveland Center
Tue 09:53:21 AM 40.8431 -82.3725 99° East 378 435 16,200 -2,000 Descending Cleveland Center
Tue 09:54:21 AM 40.8325 -82.2544 97° East 369 425 14,500 -1,850 Descending Cleveland Center
Tue 09:55:21 AM 40.8175 -82.1250 99° East 364 419 12,500 -1,650 Descending Cleveland Center
Tue 09:56:21 AM 40.8067 -82.0122 97° East 335 386 11,200 -1,750 Descending Cleveland Center
Tue 09:57:21 AM 40.7953 -81.9161 99° East 283 326 9,000 -2,000 Descending Cleveland Center
Tue 09:58:21 AM 40.7858 -81.8225 98° East 256 295 7,200 -1,800 Descending Cleveland Center
Tue 09:59:21 AM 40.7931 -81.7350 84° East 241 277 5,400 -1,750 Descending Cleveland Center
Tue 10:00:21 AM 40.8147 -81.6531 71° East 236 272 3,700 -1,200 Descending Cleveland Center
Tue 10:01:21 AM 40.8342 -81.5767 71° East 223 257 3,000 -700 Descending Cleveland Center

Login

Don't have an account? Register now (free) for customized features, flight alerts, and more!